createdAt,value
2022-12-31T00:00:15.688Z,100961.59
2022-12-31T00:02:43.105Z,100963.22
2022-12-31T00:05:10.777Z,100955.66
2022-12-31T00:10:04.725Z,100967.56
2022-12-31T00:12:32.064Z,100964.75
2022-12-31T00:14:59.330Z,100962.97
2022-12-31T00:17:26.653Z,100963.31
2022-12-31T00:19:54.027Z,100969.75
2022-12-31T00:22:21.277Z,100965.19
2022-12-31T00:24:48.548Z,100965.06
2022-12-31T00:27:16.360Z,100975.22
2022-12-31T00:29:43.671Z,100976.59
2022-12-31T00:32:10.860Z,100979.44
2022-12-31T00:34:38.101Z,100979.59
2022-12-31T00:37:05.394Z,100985.06
2022-12-31T00:39:32.716Z,100983.19
2022-12-31T00:41:59.967Z,100978.56
2022-12-31T00:44:27.161Z,100984.66
2022-12-31T00:46:54.465Z,100975.53
2022-12-31T00:49:21.895Z,100987.84
2022-12-31T00:51:49.654Z,100986.94
2022-12-31T00:54:16.977Z,100986.66
2022-12-31T00:56:44.181Z,100996.63
2022-12-31T00:59:11.370Z,100991.03
2022-12-31T01:01:39.978Z,100995.72
2022-12-31T01:04:11.232Z,100996.63
2022-12-31T01:06:38.997Z,100995.72
2022-12-31T01:09:07.243Z,100995.66
2022-12-31T01:11:34.646Z,100991.84
2022-12-31T01:14:14.261Z,100998.28
2022-12-31T01:16:46.156Z,100996.13
2022-12-31T01:19:17.461Z,101002.16
2022-12-31T01:21:45.877Z,100997.88
2022-12-31T01:24:13.408Z,100998.97
2022-12-31T01:26:41.136Z,100995.13
2022-12-31T01:29:10.070Z,100987.41
2022-12-31T01:31:38.098Z,100993.88
2022-12-31T01:34:06.208Z,100988.25
2022-12-31T01:36:35.367Z,100992.59
2022-12-31T01:39:05.546Z,100998.16
2022-12-31T01:41:36.070Z,100999.16
2022-12-31T01:44:12.400Z,100989.47
2022-12-31T01:47:02.508Z,100988.63
2022-12-31T01:49:29.594Z,100993.16
2022-12-31T01:52:07.591Z,100990.47
2022-12-31T01:54:40.165Z,100996.16
2022-12-31T01:57:08.642Z,100988.03
2022-12-31T01:59:36.233Z,100988.94
2022-12-31T02:02:04.613Z,100990.63
2022-12-31T02:04:33.122Z,100989.03
2022-12-31T02:07:03.269Z,100986.09
2022-12-31T02:09:31.480Z,100992.28
2022-12-31T02:11:59.309Z,100992.06
2022-12-31T02:14:36.542Z,100987.91
2022-12-31T02:17:24.922Z,100982.00
2022-12-31T02:20:30.666Z,100980.59
2022-12-31T02:23:04.089Z,100987.00
2022-12-31T02:25:37.632Z,100983.09
2022-12-31T02:28:42.723Z,100976.97
2022-12-31T02:31:18.880Z,100970.97
2022-12-31T02:33:54.911Z,100984.88
2022-12-31T02:36:30.084Z,100986.94
2022-12-31T02:38:58.525Z,100987.19
2022-12-31T02:41:44.531Z,100990.28
2022-12-31T02:44:33.988Z,100994.53
2022-12-31T02:47:07.337Z,100998.13
2022-12-31T02:50:09.509Z,101000.19
2022-12-31T02:53:12.695Z,100994.63
2022-12-31T02:56:07.495Z,100997.88
2022-12-31T02:58:59.519Z,101006.13
2022-12-31T03:01:53.880Z,101000.72
2022-12-31T03:04:34.522Z,101005.94
2022-12-31T03:07:07.944Z,101001.72
2022-12-31T03:09:36.266Z,101008.75
2022-12-31T03:12:25.414Z,101008.75
2022-12-31T03:14:53.150Z,101002.72
2022-12-31T03:17:20.734Z,101008.66
2022-12-31T03:20:06.515Z,101002.88
2022-12-31T03:22:36.436Z,101007.13
2022-12-31T03:25:28.100Z,101003.72
2022-12-31T03:27:56.549Z,101002.03
2022-12-31T03:30:25.314Z,100995.31
2022-12-31T03:32:53.835Z,101006.28
2022-12-31T03:35:21.988Z,101008.09
2022-12-31T03:37:50.333Z,101009.41
2022-12-31T03:40:19.375Z,101007.41
2022-12-31T03:42:46.793Z,101010.22
2022-12-31T03:45:14.379Z,101003.41
2022-12-31T03:47:41.711Z,101004.50
2022-12-31T03:50:11.676Z,101016.44
2022-12-31T03:52:39.008Z,101014.66
2022-12-31T03:55:07.548Z,101016.50
2022-12-31T03:57:35.021Z,101022.13
2022-12-31T04:00:02.587Z,101028.56
2022-12-31T04:02:31.982Z,101020.16
2022-12-31T04:04:59.342Z,101025.88
2022-12-31T04:07:26.632Z,101017.81
2022-12-31T04:09:54.084Z,101017.66
2022-12-31T04:12:21.464Z,101024.31
2022-12-31T04:14:48.740Z,101018.31
2022-12-31T04:17:16.006Z,101012.16
2022-12-31T04:19:43.304Z,101008.88
2022-12-31T04:22:11.458Z,101020.59
2022-12-31T04:24:38.817Z,101028.50
2022-12-31T04:27:08.049Z,101032.38
2022-12-31T04:29:35.907Z,101027.19
2022-12-31T04:32:05.364Z,101026.03
2022-12-31T04:34:33.251Z,101030.66
2022-12-31T04:37:00.576Z,101029.84
2022-12-31T04:39:28.058Z,101038.31
2022-12-31T04:41:55.462Z,101037.81
2022-12-31T04:44:22.873Z,101039.38
2022-12-31T04:46:50.102Z,101046.09
2022-12-31T04:49:17.446Z,101044.34
2022-12-31T04:51:44.703Z,101050.28
2022-12-31T04:54:12.012Z,101054.09
2022-12-31T04:56:39.289Z,101049.69
2022-12-31T04:59:07.393Z,101054.94
2022-12-31T05:01:36.776Z,101051.72
2022-12-31T05:04:04.155Z,101043.13
2022-12-31T05:06:31.428Z,101041.44
2022-12-31T05:08:59.136Z,101042.28
2022-12-31T05:11:26.508Z,101044.16
2022-12-31T05:13:53.771Z,101043.28
2022-12-31T05:16:21.129Z,101046.88
2022-12-31T05:18:48.564Z,101047.78
2022-12-31T05:21:21.190Z,101043.88
2022-12-31T05:23:49.022Z,101045.56
2022-12-31T05:26:17.278Z,101037.06
2022-12-31T05:28:44.573Z,101034.72
2022-12-31T05:31:12.095Z,101036.38
2022-12-31T05:33:39.477Z,101032.47
2022-12-31T05:36:07.648Z,101032.66
2022-12-31T05:38:34.928Z,101041.59
2022-12-31T05:41:05.550Z,101050.34
2022-12-31T05:43:33.812Z,101053.25
2022-12-31T05:46:02.362Z,101057.13
2022-12-31T05:48:30.359Z,101053.00
2022-12-31T05:50:58.672Z,101058.41
2022-12-31T05:53:26.218Z,101069.50
2022-12-31T05:55:53.603Z,101069.50
2022-12-31T05:58:20.900Z,101078.75
2022-12-31T06:00:48.352Z,101080.47
2022-12-31T06:03:15.671Z,101081.47
2022-12-31T06:05:43.112Z,101080.69
2022-12-31T06:08:12.115Z,101087.72
2022-12-31T06:10:40.577Z,101094.34
2022-12-31T06:13:08.799Z,101099.53
2022-12-31T06:15:39.716Z,101099.88
2022-12-31T06:18:07.301Z,101109.97
2022-12-31T06:20:37.853Z,101107.19
2022-12-31T06:23:05.693Z,101120.75
2022-12-31T06:25:35.542Z,101125.34
2022-12-31T06:28:04.408Z,101134.47
2022-12-31T06:30:32.425Z,101137.84
2022-12-31T06:32:59.766Z,101144.22
2022-12-31T06:35:27.405Z,101152.22
2022-12-31T06:37:54.636Z,101159.69
2022-12-31T06:40:22.000Z,101160.53
2022-12-31T06:42:56.068Z,101173.00
2022-12-31T06:45:27.583Z,101174.84
2022-12-31T06:47:54.960Z,101177.63
2022-12-31T06:50:22.206Z,101176.66
2022-12-31T06:52:49.556Z,101177.84
2022-12-31T06:55:17.101Z,101178.84
2022-12-31T06:57:44.730Z,101176.97
2022-12-31T07:00:13.655Z,101172.38
2022-12-31T07:03:18.631Z,101164.22
2022-12-31T07:05:56.412Z,101165.16
2022-12-31T07:08:51.725Z,101169.66
2022-12-31T07:11:24.215Z,101165.06
2022-12-31T07:14:04.383Z,101166.91
2022-12-31T07:17:04.547Z,101170.31
2022-12-31T07:19:57.899Z,101173.56
2022-12-31T07:22:25.727Z,101181.19
2022-12-31T07:24:53.472Z,101179.22
2022-12-31T07:27:29.563Z,101185.50
2022-12-31T07:30:00.154Z,101190.59
2022-12-31T07:32:59.851Z,101195.34
2022-12-31T07:35:40.050Z,101198.16
2022-12-31T07:38:28.665Z,101194.06
2022-12-31T07:41:28.229Z,101210.28
2022-12-31T07:44:30.101Z,101204.41
2022-12-31T07:47:00.022Z,101206.69
2022-12-31T07:49:28.825Z,101209.53
2022-12-31T07:51:56.641Z,101211.47
2022-12-31T07:54:24.077Z,101211.63
2022-12-31T07:56:51.951Z,101207.25
2022-12-31T07:59:45.506Z,101202.94
2022-12-31T08:02:24.135Z,101208.34
2022-12-31T08:04:58.803Z,101210.41
2022-12-31T08:07:41.458Z,101213.59
2022-12-31T08:10:29.957Z,101215.09
2022-12-31T08:13:02.348Z,101221.47
2022-12-31T08:15:30.678Z,101231.22
2022-12-31T08:17:58.408Z,101231.69
2022-12-31T08:20:26.935Z,101230.34
2022-12-31T08:23:03.133Z,101234.78
2022-12-31T08:26:07.858Z,101241.59
2022-12-31T08:29:08.948Z,101230.88
2022-12-31T08:32:15.434Z,101247.09
2022-12-31T08:34:48.727Z,101244.72
2022-12-31T08:37:37.423Z,101249.28
2022-12-31T08:40:14.353Z,101249.00
2022-12-31T08:42:50.334Z,101251.00
2022-12-31T08:45:35.954Z,101252.50
2022-12-31T08:48:35.983Z,101243.94
2022-12-31T08:51:04.245Z,101240.06
2022-12-31T08:53:35.170Z,101237.91
2022-12-31T08:56:13.082Z,101238.03
2022-12-31T08:59:01.928Z,101245.75
2022-12-31T09:01:41.454Z,101247.91
2022-12-31T09:04:28.450Z,101252.53
2022-12-31T09:07:02.437Z,101251.59
2022-12-31T09:10:11.685Z,101255.44
2022-12-31T09:12:53.538Z,101251.63
2022-12-31T09:15:34.006Z,101265.56
2022-12-31T09:18:01.614Z,101269.19
2022-12-31T09:20:42.417Z,101273.41
2022-12-31T09:23:12.516Z,101280.53
2022-12-31T09:26:15.366Z,101279.69
2022-12-31T09:28:52.293Z,101281.91
2022-12-31T09:31:35.621Z,101274.53
2022-12-31T09:34:14.909Z,101270.38
2022-12-31T09:36:48.579Z,101270.03
2022-12-31T09:39:42.142Z,101272.56
2022-12-31T09:42:12.242Z,101282.16
2022-12-31T09:45:17.061Z,101282.19
2022-12-31T09:47:56.306Z,101277.28
2022-12-31T09:50:56.616Z,101278.75
2022-12-31T09:53:29.834Z,101283.44
2022-12-31T09:56:20.388Z,101281.22
2022-12-31T09:58:57.357Z,101277.97
2022-12-31T10:01:46.036Z,101280.84
2022-12-31T10:04:45.029Z,101281.13
2022-12-31T10:07:24.280Z,101281.03
2022-12-31T10:10:00.459Z,101289.06
2022-12-31T10:12:33.701Z,101291.03
2022-12-31T10:15:19.524Z,101276.03
2022-12-31T10:17:55.928Z,101274.84
2022-12-31T10:20:54.317Z,101276.09
2022-12-31T10:23:52.340Z,101276.78
2022-12-31T10:26:31.671Z,101276.38
2022-12-31T10:29:44.987Z,101283.78
2022-12-31T10:32:31.198Z,101284.94
2022-12-31T10:35:02.490Z,101281.53
2022-12-31T10:37:53.223Z,101276.06
2022-12-31T10:40:42.381Z,101270.00
2022-12-31T10:43:47.218Z,101265.03
2022-12-31T10:46:36.590Z,101266.56
2022-12-31T10:49:16.207Z,101256.72
2022-12-31T10:52:25.643Z,101258.19
2022-12-31T10:55:26.313Z,101261.84
2022-12-31T10:58:17.909Z,101250.78
2022-12-31T11:00:51.036Z,101249.13
2022-12-31T11:03:49.703Z,101253.50
2022-12-31T11:06:36.709Z,101250.31
2022-12-31T11:09:28.625Z,101241.59
2022-12-31T11:12:29.811Z,101247.16
2022-12-31T11:15:15.938Z,101244.91
2022-12-31T11:17:52.341Z,101242.00
2022-12-31T11:20:50.445Z,101249.88
2022-12-31T11:24:01.062Z,101239.25
2022-12-31T11:26:40.596Z,101239.19
2022-12-31T11:29:29.633Z,101248.53
2022-12-31T11:32:23.647Z,101249.00
2022-12-31T11:35:12.156Z,101241.28
2022-12-31T11:37:45.121Z,101229.16
2022-12-31T11:40:21.751Z,101231.53
2022-12-31T11:43:04.870Z,101224.78
2022-12-31T11:46:02.580Z,101220.19
2022-12-31T11:48:35.906Z,101222.53
2022-12-31T11:51:22.008Z,101224.47
2022-12-31T11:54:27.080Z,101222.47
2022-12-31T11:57:04.677Z,101216.47
2022-12-31T11:59:32.137Z,101223.69
2022-12-31T12:02:25.096Z,101227.63
2022-12-31T12:04:53.610Z,101231.53
2022-12-31T12:07:24.094Z,101240.63
2022-12-31T12:09:54.588Z,101238.94
2022-12-31T12:12:22.475Z,101229.31
2022-12-31T12:14:53.743Z,101222.84
2022-12-31T12:17:32.569Z,101223.03
2022-12-31T12:20:13.511Z,101223.63
2022-12-31T12:22:52.487Z,101231.81
2022-12-31T12:25:22.456Z,101234.25
2022-12-31T12:27:49.701Z,101229.16
2022-12-31T12:30:21.975Z,101223.84
2022-12-31T12:33:01.379Z,101226.16
2022-12-31T12:35:34.828Z,101224.84
2022-12-31T12:38:05.582Z,101219.88
2022-12-31T12:40:35.021Z,101220.03
2022-12-31T12:43:02.952Z,101219.94
2022-12-31T12:45:51.484Z,101229.66
2022-12-31T12:48:28.924Z,101231.34
2022-12-31T12:50:56.202Z,101229.94
2022-12-31T12:53:32.486Z,101227.53
2022-12-31T12:56:08.962Z,101221.41
2022-12-31T12:58:54.726Z,101226.09
2022-12-31T13:01:47.830Z,101232.53
2022-12-31T13:04:35.209Z,101229.16
2022-12-31T13:07:19.499Z,101229.94
2022-12-31T13:10:20.631Z,101217.22
2022-12-31T13:15:58.834Z,101241.16
2022-12-31T13:19:09.596Z,101242.81
2022-12-31T13:21:51.153Z,101240.25
2022-12-31T13:24:53.545Z,101248.38
2022-12-31T13:27:29.763Z,101243.94
2022-12-31T13:30:01.563Z,101248.31
2022-12-31T13:32:43.066Z,101246.59
2022-12-31T13:35:45.722Z,101255.69
2022-12-31T13:38:18.721Z,101242.50
2022-12-31T13:40:57.124Z,101245.91
2022-12-31T13:43:51.139Z,101245.53
2022-12-31T13:46:44.310Z,101243.19
2022-12-31T13:49:26.711Z,101252.22
2022-12-31T13:52:18.889Z,101251.69
2022-12-31T13:55:23.941Z,101249.72
2022-12-31T13:58:09.436Z,101255.53
2022-12-31T14:01:15.091Z,101255.94
2022-12-31T14:03:59.377Z,101256.25
2022-12-31T14:06:34.143Z,101252.53
2022-12-31T14:09:01.720Z,101246.97
2022-12-31T14:11:59.887Z,101250.66
2022-12-31T14:14:54.527Z,101254.44
2022-12-31T14:17:30.818Z,101262.22
2022-12-31T14:20:21.262Z,101270.13
2022-12-31T14:23:09.722Z,101276.75
2022-12-31T14:25:42.836Z,101279.03
2022-12-31T14:28:23.951Z,101276.22
2022-12-31T14:31:00.503Z,101282.22
2022-12-31T14:33:54.237Z,101277.19
2022-12-31T14:36:46.438Z,101269.25
2022-12-31T14:39:26.884Z,101278.59
2022-12-31T14:42:13.599Z,101281.31
2022-12-31T14:45:25.156Z,101285.00
2022-12-31T14:48:10.812Z,101282.44
2022-12-31T14:50:38.671Z,101291.16
2022-12-31T14:53:07.526Z,101285.88
2022-12-31T14:55:37.044Z,101286.84
2022-12-31T14:58:29.623Z,101295.06
2022-12-31T15:01:03.495Z,101298.25
2022-12-31T15:03:30.897Z,101293.84
2022-12-31T15:06:07.227Z,101291.63
2022-12-31T15:08:56.058Z,101286.59
2022-12-31T15:12:00.447Z,101289.81
2022-12-31T15:14:56.730Z,101286.94
2022-12-31T15:17:43.165Z,101286.34
2022-12-31T15:20:48.133Z,101279.75
2022-12-31T15:23:25.119Z,101283.84
2022-12-31T15:26:02.517Z,101285.78
2022-12-31T15:28:36.439Z,101280.91
2022-12-31T15:31:20.979Z,101288.84
2022-12-31T15:33:56.790Z,101297.88
2022-12-31T15:36:30.449Z,101308.06
2022-12-31T15:39:07.699Z,101317.75
2022-12-31T15:42:03.190Z,101318.28
2022-12-31T15:44:44.657Z,101328.03
2022-12-31T15:47:26.065Z,101333.69
2022-12-31T15:49:54.741Z,101328.59
2022-12-31T15:52:44.075Z,101330.97
2022-12-31T15:55:34.433Z,101321.00
2022-12-31T15:58:06.105Z,101316.34
2022-12-31T16:00:54.782Z,101314.59
2022-12-31T16:03:28.170Z,101312.22
2022-12-31T16:06:01.023Z,101302.41
2022-12-31T16:08:34.943Z,101310.81
2022-12-31T16:11:05.901Z,101306.44
2022-12-31T16:13:37.166Z,101310.88
2022-12-31T16:16:15.129Z,101307.56
2022-12-31T16:18:44.204Z,101303.53
2022-12-31T16:21:24.859Z,101302.13
2022-12-31T16:23:57.747Z,101299.56
2022-12-31T16:26:31.791Z,101295.53
2022-12-31T16:29:04.532Z,101295.97
2022-12-31T16:31:32.134Z,101289.06
2022-12-31T16:34:12.394Z,101288.53
2022-12-31T16:36:39.801Z,101297.94
2022-12-31T16:39:37.657Z,101310.41
2022-12-31T16:42:13.714Z,101320.75
2022-12-31T16:44:41.819Z,101317.56
2022-12-31T16:47:15.064Z,101324.47
2022-12-31T16:49:42.943Z,101320.69
2022-12-31T16:52:28.419Z,101327.81
2022-12-31T16:54:57.279Z,101324.13
2022-12-31T16:57:28.953Z,101316.47
2022-12-31T17:00:04.917Z,101330.09
2022-12-31T17:02:39.899Z,101332.25
2022-12-31T17:05:25.063Z,101328.59
2022-12-31T17:07:52.931Z,101335.91
2022-12-31T17:10:24.492Z,101333.41
2022-12-31T17:15:45.220Z,101342.06
2022-12-31T17:18:20.645Z,101343.81
2022-12-31T17:20:50.530Z,101341.97
2022-12-31T17:23:31.732Z,101341.19
2022-12-31T17:26:22.316Z,101337.69
2022-12-31T17:28:52.317Z,101343.03
2022-12-31T17:31:30.888Z,101346.72
2022-12-31T17:34:15.097Z,101336.88
2022-12-31T17:36:58.011Z,101350.22
2022-12-31T17:39:26.705Z,101348.03
2022-12-31T17:41:57.785Z,101345.09
2022-12-31T17:44:31.463Z,101350.50
2022-12-31T17:46:58.956Z,101347.00
2022-12-31T17:49:31.645Z,101359.06
2022-12-31T17:51:59.075Z,101353.72
2022-12-31T17:54:26.494Z,101352.69
2022-12-31T17:56:54.254Z,101349.56
2022-12-31T17:59:24.650Z,101355.34
2022-12-31T18:01:52.121Z,101354.59
2022-12-31T18:04:20.824Z,101343.94
2022-12-31T18:06:48.279Z,101346.56
2022-12-31T18:09:16.517Z,101357.75
2022-12-31T18:11:44.998Z,101365.09
2022-12-31T18:14:15.062Z,101362.94
2022-12-31T18:16:42.619Z,101363.75
2022-12-31T18:19:37.820Z,101368.69
2022-12-31T18:22:02.303Z,101365.28
2022-12-31T18:24:29.636Z,101369.22
2022-12-31T18:26:56.888Z,101359.06
2022-12-31T18:29:24.120Z,101361.13
2022-12-31T18:31:51.703Z,101364.59
2022-12-31T18:34:19.167Z,101368.16
2022-12-31T18:36:46.583Z,101362.63
2022-12-31T18:39:14.133Z,101361.34
2022-12-31T18:41:45.902Z,101362.03
2022-12-31T18:44:15.057Z,101371.63
2022-12-31T18:46:43.019Z,101370.50
2022-12-31T18:49:10.608Z,101373.41
2022-12-31T18:51:37.941Z,101372.09
2022-12-31T18:54:06.834Z,101378.72
2022-12-31T18:56:34.150Z,101375.56
2022-12-31T18:59:02.950Z,101376.97
2022-12-31T19:01:33.104Z,101381.50
2022-12-31T19:04:12.214Z,101378.84
2022-12-31T19:06:39.872Z,101382.88
2022-12-31T19:09:23.907Z,101384.25
2022-12-31T19:11:54.826Z,101386.53
2022-12-31T19:14:24.306Z,101395.88
2022-12-31T19:16:53.346Z,101390.41
2022-12-31T19:19:21.050Z,101391.13
2022-12-31T19:21:48.312Z,101388.25
2022-12-31T19:24:19.166Z,101392.19
2022-12-31T19:26:46.654Z,101386.09
2022-12-31T19:29:22.255Z,101386.00
2022-12-31T19:31:49.781Z,101378.56
2022-12-31T19:34:17.204Z,101382.50
2022-12-31T19:36:44.962Z,101384.75
2022-12-31T19:39:17.761Z,101374.13
2022-12-31T19:41:45.933Z,101373.25
2022-12-31T19:44:18.191Z,101367.91
2022-12-31T19:46:46.849Z,101370.31
2022-12-31T19:49:15.085Z,101369.66
2022-12-31T19:51:42.459Z,101375.09
2022-12-31T19:54:12.678Z,101378.66
2022-12-31T19:56:40.171Z,101376.03
2022-12-31T19:59:09.661Z,101373.59
2022-12-31T20:01:37.494Z,101377.06
2022-12-31T20:04:05.046Z,101376.56
2022-12-31T20:06:32.385Z,101388.03
2022-12-31T20:08:59.595Z,101391.34
2022-12-31T20:11:26.918Z,101392.78
2022-12-31T20:13:54.314Z,101383.72
2022-12-31T20:16:24.033Z,101393.56
2022-12-31T20:18:51.524Z,101394.44
2022-12-31T20:21:21.791Z,101382.75
2022-12-31T20:23:50.939Z,101383.78
2022-12-31T20:26:19.076Z,101387.84
2022-12-31T20:28:46.706Z,101386.91
2022-12-31T20:31:16.816Z,101387.53
2022-12-31T20:33:44.902Z,101391.91
2022-12-31T20:36:14.167Z,101392.09
2022-12-31T20:38:41.847Z,101390.44
2022-12-31T20:41:15.287Z,101383.03
2022-12-31T20:43:43.826Z,101393.16
2022-12-31T20:46:31.445Z,101391.25
2022-12-31T20:49:01.131Z,101394.72
2022-12-31T20:51:31.261Z,101391.50
2022-12-31T20:54:01.841Z,101392.38
2022-12-31T20:56:32.543Z,101389.72
2022-12-31T20:59:00.658Z,101390.59
2022-12-31T21:01:41.809Z,101396.97
2022-12-31T21:04:15.520Z,101398.56
2022-12-31T21:06:43.102Z,101402.16
2022-12-31T21:09:10.520Z,101401.13
2022-12-31T21:11:56.260Z,101405.16
2022-12-31T21:14:23.572Z,101413.69
2022-12-31T21:16:50.875Z,101411.16
2022-12-31T21:19:18.152Z,101412.44
2022-12-31T21:21:45.441Z,101409.16
2022-12-31T21:24:12.683Z,101414.53
2022-12-31T21:26:39.884Z,101411.91
2022-12-31T21:29:07.213Z,101412.09
2022-12-31T21:31:34.584Z,101416.56
2022-12-31T21:34:01.882Z,101414.63
2022-12-31T21:36:29.315Z,101414.53
2022-12-31T21:38:56.783Z,101409.09
2022-12-31T21:41:47.096Z,101407.22
2022-12-31T21:44:14.577Z,101408.97
2022-12-31T21:47:00.887Z,101414.03
2022-12-31T21:49:29.337Z,101416.69
2022-12-31T21:52:28.907Z,101423.25
2022-12-31T21:55:37.424Z,101436.53
2022-12-31T22:01:10.371Z,101437.56
2022-12-31T22:03:38.384Z,101412.31
2022-12-31T22:06:13.187Z,101404.97
2022-12-31T22:08:42.845Z,101405.91
2022-12-31T22:11:11.912Z,101413.41
2022-12-31T22:13:40.391Z,101413.22
2022-12-31T22:16:08.934Z,101423.44
2022-12-31T22:18:41.247Z,101422.16
2022-12-31T22:21:18.455Z,101420.09
2022-12-31T22:23:52.132Z,101427.44
2022-12-31T22:26:22.354Z,101424.63
2022-12-31T22:28:50.576Z,101423.84
2022-12-31T22:31:24.801Z,101418.03
2022-12-31T22:33:53.072Z,101422.19
2022-12-31T22:36:21.800Z,101417.78
2022-12-31T22:38:50.895Z,101418.22
2022-12-31T22:41:20.819Z,101408.34
2022-12-31T22:43:50.115Z,101408.25
2022-12-31T22:46:20.294Z,101407.13
2022-12-31T22:48:48.244Z,101409.97
2022-12-31T22:51:16.795Z,101407.44
2022-12-31T22:53:44.713Z,101402.22
2022-12-31T22:56:14.626Z,101404.00
2022-12-31T22:58:41.960Z,101404.16
2022-12-31T23:01:22.365Z,101402.03
2022-12-31T23:03:51.453Z,101394.13
2022-12-31T23:06:20.294Z,101392.59
2022-12-31T23:09:06.107Z,101392.56
2022-12-31T23:11:35.294Z,101396.47
2022-12-31T23:14:21.629Z,101395.16
2022-12-31T23:17:30.950Z,101396.53
2022-12-31T23:20:13.440Z,101391.09
2022-12-31T23:22:59.222Z,101395.97
2022-12-31T23:25:26.729Z,101395.03
2022-12-31T23:27:53.970Z,101387.97
2022-12-31T23:30:21.336Z,101387.03
2022-12-31T23:32:48.862Z,101395.53
2022-12-31T23:35:16.439Z,101404.88
2022-12-31T23:37:43.661Z,101412.78
2022-12-31T23:40:17.217Z,101413.38
2022-12-31T23:42:48.537Z,101406.25
2022-12-31T23:45:15.943Z,101397.34
2022-12-31T23:47:43.310Z,101405.72
2022-12-31T23:50:10.632Z,101407.78
2022-12-31T23:52:37.878Z,101410.31
2022-12-31T23:55:05.287Z,101404.38
2022-12-31T23:57:32.793Z,101404.38
